Time;durP1;ratioP1;P1;durP2;ratioP2;P2;SDS_P1;SDS_P2;PMS_P1;PMS_P2;Temp;Humidity;BMP_temperature;BMP_pressure;BME280_temperature;BME280_humidity;BME280_pressure;Samples;Min_cycle;Max_cycle;Signal;HPM_P1;HPM_P2
2022/12/30 00:00:43;;;;;;;66.32;49.75;;;14.60;73.10;;;;;;4912706;28;92602;-50
2022/12/30 00:03:09;;;;;;;68.25;49.30;;;14.60;73.20;;;;;;4909437;28;89703;-47
2022/12/30 00:05:35;;;;;;;64.88;49.55;;;14.60;73.10;;;;;;4906887;28;89150;-46
2022/12/30 00:08:01;;;;;;;68.72;49.50;;;14.60;73.10;;;;;;4913583;28;90458;-47
2022/12/30 00:10:27;;;;;;;65.00;49.65;;;14.60;73.10;;;;;;4905540;28;94207;-48
2022/12/30 00:35:13;;;;;;;66.25;48.97;;;14.50;72.90;;;;;;4912545;28;90121;-48
2022/12/30 00:37:39;;;;;;;64.80;49.03;;;14.50;73.00;;;;;;4910565;28;90109;-48
2022/12/30 00:40:05;;;;;;;64.45;49.22;;;14.50;73.10;;;;;;4908918;28;91101;-50
2022/12/30 00:45:16;;;;;;;65.80;49.67;;;14.50;73.20;;;;;;4905118;28;89894;-47
2022/12/30 00:47:42;;;;;;;65.80;49.50;;;14.50;73.00;;;;;;4907253;28;94091;-46
2022/12/30 00:58:21;;;;;;;68.82;49.05;;;14.40;72.80;;;;;;4910395;28;89133;-48
2022/12/30 01:00:47;;;;;;;67.55;49.67;;;14.40;72.80;;;;;;4911031;28;90389;-48
2022/12/30 01:03:13;;;;;;;65.95;49.40;;;14.40;72.90;;;;;;4904751;28;93271;-48
2022/12/30 01:05:39;;;;;;;65.15;49.63;;;14.40;72.80;;;;;;4916961;28;91553;-49
2022/12/30 01:08:05;;;;;;;66.95;49.63;;;14.40;72.70;;;;;;4895790;28;90262;-51
2022/12/30 01:10:31;;;;;;;65.38;49.38;;;14.40;72.70;;;;;;4912376;28;89930;-48
2022/12/30 01:12:57;;;;;;;68.25;49.42;;;14.30;72.70;;;;;;4910278;28;91720;-47
2022/12/30 01:15:23;;;;;;;64.82;49.50;;;14.30;72.70;;;;;;4906139;28;91376;-49
2022/12/30 01:17:49;;;;;;;67.03;49.30;;;14.30;72.60;;;;;;4906446;28;89907;-49
2022/12/30 01:20:14;;;;;;;65.25;48.95;;;14.30;72.70;;;;;;4899755;28;90882;-48
2022/12/30 01:22:40;;;;;;;66.07;49.42;;;14.30;72.50;;;;;;4903822;28;88877;-49
2022/12/30 01:25:06;;;;;;;67.32;49.75;;;14.30;72.70;;;;;;4899938;28;92306;-50
2022/12/30 01:27:32;;;;;;;65.10;49.55;;;14.30;72.70;;;;;;4908046;28;90777;-49
2022/12/30 01:29:58;;;;;;;65.70;49.20;;;14.30;72.70;;;;;;4914608;28;90949;-48
2022/12/30 01:32:27;;;;;;;65.03;49.60;;;14.30;72.70;;;;;;4911797;28;90870;-48
2022/12/30 01:34:54;;;;;;;64.75;48.72;;;14.30;72.60;;;;;;4903945;28;95706;-48
2022/12/30 01:37:20;;;;;;;64.70;49.13;;;14.30;72.60;;;;;;4901787;28;90244;-49
2022/12/30 01:39:46;;;;;;;66.25;49.45;;;14.20;73.20;;;;;;4911075;28;90758;-48
2022/12/30 01:42:29;;;;;;;64.15;48.92;;;14.20;72.50;;;;;;4913247;28;91873;-47
2022/12/30 01:45:08;;;;;;;66.22;49.03;;;14.30;72.60;;;;;;4912241;28;90215;-48
2022/12/30 01:47:36;;;;;;;65.53;49.42;;;14.20;72.60;;;;;;4921143;28;89580;-47
2022/12/30 01:50:11;;;;;;;65.25;48.80;;;14.20;72.60;;;;;;4914426;28;91328;-47
2022/12/30 01:52:46;;;;;;;66.50;49.33;;;14.20;72.60;;;;;;4907766;28;95913;-47
2022/12/30 01:55:17;;;;;;;66.70;49.53;;;14.20;72.80;;;;;;4905791;28;90828;-49
2022/12/30 01:57:48;;;;;;;64.78;49.28;;;14.20;72.60;;;;;;4915038;28;90138;-47
2022/12/30 02:00:13;;;;;;;65.10;48.67;;;14.10;72.60;;;;;;4905522;28;92616;-50
2022/12/30 02:02:40;;;;;;;65.90;49.20;;;14.10;72.70;;;;;;4910826;28;89904;-47
2022/12/30 02:05:07;;;;;;;66.15;49.53;;;14.10;72.80;;;;;;4909498;28;89879;-48
2022/12/30 02:07:38;;;;;;;64.85;49.15;;;14.10;72.80;;;;;;4909581;28;91959;-50
2022/12/30 02:10:07;;;;;;;63.50;48.80;;;14.10;72.80;;;;;;4909588;28;89669;-47
2022/12/30 02:12:33;;;;;;;67.55;49.38;;;14.10;72.70;;;;;;4910236;28;90657;-52
2022/12/30 02:14:59;;;;;;;65.45;49.33;;;14.10;72.70;;;;;;4916302;28;92426;-50
2022/12/30 02:17:24;;;;;;;65.15;49.20;;;14.10;72.60;;;;;;4918085;28;89925;-49
2022/12/30 02:20:28;;;;;;;64.95;49.33;;;14.10;72.60;;;;;;4906978;28;91356;-49
2022/12/30 02:23:21;;;;;;;64.65;49.00;;;14.10;72.80;;;;;;4904352;28;90856;-47
2022/12/30 02:26:07;;;;;;;63.60;49.25;;;14.10;72.80;;;;;;4914724;28;90193;-49
2022/12/30 02:29:18;;;;;;;63.83;48.92;;;14.00;72.60;;;;;;4912510;28;90261;-46
2022/12/30 02:32:11;;;;;;;62.63;48.53;;;14.10;72.90;;;;;;4885431;28;91440;-51
2022/12/30 02:34:55;;;;;;;65.97;49.55;;;14.00;72.70;;;;;;4909024;28;89963;-46
2022/12/30 02:37:33;;;;;;;65.28;49.55;;;14.00;72.50;;;;;;4910931;28;90398;-48
2022/12/30 02:40:19;;;;;;;64.18;49.42;;;14.00;72.70;;;;;;4914369;28;88752;-46
2022/12/30 02:46:00;;;;;;;65.40;49.15;;;14.00;72.80;;;;;;4913077;28;91532;-47
2022/12/30 02:48:29;;;;;;;63.40;49.08;;;14.00;73.40;;;;;;4905337;28;90992;-47
2022/12/30 02:53:40;;;;;;;65.00;49.30;;;13.90;72.70;;;;;;4900947;28;89587;-46
2022/12/30 02:56:07;;;;;;;67.30;49.08;;;14.00;72.70;;;;;;4905748;28;90741;-51
2022/12/30 02:58:37;;;;;;;64.10;49.08;;;13.90;72.60;;;;;;4907543;28;90533;-49
2022/12/30 03:04:27;;;;;;;65.60;49.17;;;13.90;72.80;;;;;;4912897;28;90343;-46
2022/12/30 03:07:22;;;;;;;63.95;49.70;;;13.90;72.60;;;;;;4912194;28;90188;-51
2022/12/30 03:12:58;;;;;;;63.60;49.08;;;13.90;72.60;;;;;;4898903;28;90073;-49
2022/12/30 03:15:34;;;;;;;64.55;48.95;;;13.90;72.70;;;;;;4910545;28;92121;-47
2022/12/30 03:18:00;;;;;;;63.58;49.03;;;13.90;72.80;;;;;;4916665;28;92391;-49
2022/12/30 03:20:27;;;;;;;65.45;48.88;;;13.90;72.80;;;;;;4905836;28;90072;-50
2022/12/30 03:28:27;;;;;;;64.53;49.00;;;13.90;72.60;;;;;;4902562;28;90878;-48
2022/12/30 03:31:00;;;;;;;66.72;49.53;;;13.90;72.70;;;;;;4906329;28;89649;-48
2022/12/30 03:33:28;;;;;;;64.45;48.92;;;13.90;72.60;;;;;;4912659;28;90535;-49
2022/12/30 03:36:02;;;;;;;63.72;48.90;;;13.90;72.70;;;;;;4902111;28;91500;-50
2022/12/30 03:38:33;;;;;;;65.35;49.38;;;13.80;72.50;;;;;;4906468;28;90736;-47
2022/12/30 03:41:03;;;;;;;66.18;49.17;;;13.80;72.60;;;;;;4921519;28;91068;-46
2022/12/30 03:43:31;;;;;;;65.32;49.20;;;13.80;72.40;;;;;;4906366;28;90477;-48
2022/12/30 03:45:57;;;;;;;64.47;48.97;;;13.80;72.50;;;;;;4907723;28;91028;-47
2022/12/30 03:48:23;;;;;;;63.65;48.83;;;13.80;72.50;;;;;;4909713;28;92313;-47
2022/12/30 03:50:48;;;;;;;64.50;49.10;;;13.80;72.50;;;;;;4906663;28;89463;-47
2022/12/30 03:53:14;;;;;;;64.53;49.13;;;13.80;72.50;;;;;;4909431;28;89986;-50
2022/12/30 03:55:39;;;;;;;65.85;49.33;;;13.80;72.50;;;;;;4905622;28;90065;-48
2022/12/30 03:58:06;;;;;;;64.90;48.97;;;13.80;72.70;;;;;;4907625;28;89936;-46
2022/12/30 04:00:32;;;;;;;63.63;48.70;;;13.80;72.50;;;;;;4903235;28;90605;-46
2022/12/30 04:02:57;;;;;;;65.57;49.30;;;13.80;72.50;;;;;;4919372;28;89859;-48
2022/12/30 04:05:23;;;;;;;64.47;49.40;;;13.80;72.60;;;;;;4906736;28;91366;-49
2022/12/30 04:07:49;;;;;;;65.18;49.20;;;13.80;72.50;;;;;;4906985;28;92677;-52
2022/12/30 04:10:14;;;;;;;64.55;49.25;;;13.80;72.70;;;;;;4914219;28;90175;-49
2022/12/30 04:12:40;;;;;;;65.53;48.83;;;13.80;72.50;;;;;;4908684;28;89830;-52
2022/12/30 04:15:06;;;;;;;64.55;48.88;;;13.80;72.50;;;;;;4904636;28;89852;-51
2022/12/30 04:17:32;;;;;;;67.32;49.42;;;13.80;72.40;;;;;;4908603;28;92879;-49
2022/12/30 04:19:58;;;;;;;63.55;49.25;;;13.70;72.30;;;;;;4915164;28;90128;-53
2022/12/30 04:22:23;;;;;;;64.45;48.95;;;13.70;72.40;;;;;;4910984;28;91148;-52
2022/12/30 04:24:49;;;;;;;64.00;49.25;;;13.70;72.40;;;;;;4902840;28;90570;-49
2022/12/30 04:27:14;;;;;;;64.93;49.05;;;13.70;72.30;;;;;;4900399;28;94256;-48
2022/12/30 04:29:40;;;;;;;64.55;49.30;;;13.70;72.50;;;;;;4915237;28;90757;-50
2022/12/30 04:32:06;;;;;;;65.47;49.22;;;13.70;72.30;;;;;;4908243;28;91284;-51
2022/12/30 04:34:31;;;;;;;63.72;49.30;;;13.70;72.40;;;;;;4905983;28;90231;-52
2022/12/30 04:36:57;;;;;;;65.22;48.80;;;13.70;72.30;;;;;;4921010;28;89771;-51
2022/12/30 04:39:23;;;;;;;63.42;48.75;;;13.70;72.40;;;;;;4911942;28;89589;-51
2022/12/30 04:41:48;;;;;;;63.60;48.70;;;13.70;72.60;;;;;;4909109;28;92586;-49
2022/12/30 04:44:14;;;;;;;63.15;48.50;;;13.70;72.40;;;;;;4904374;28;91298;-48
2022/12/30 04:46:40;;;;;;;64.20;48.92;;;13.70;72.50;;;;;;4911960;28;89759;-51
2022/12/30 04:49:05;;;;;;;63.80;49.05;;;13.70;72.40;;;;;;4908535;28;90465;-50
2022/12/30 04:51:31;;;;;;;66.15;49.00;;;13.70;72.40;;;;;;4908048;28;91850;-49
2022/12/30 04:53:56;;;;;;;65.45;48.95;;;13.70;72.30;;;;;;4913297;28;91235;-48
2022/12/30 04:56:22;;;;;;;64.07;48.88;;;13.70;72.10;;;;;;4909695;28;91541;-49
2022/12/30 04:58:48;;;;;;;64.00;49.13;;;13.70;72.20;;;;;;4908685;28;90410;-51
2022/12/30 05:01:13;;;;;;;66.32;49.30;;;13.70;72.20;;;;;;4907858;28;90844;-51
2022/12/30 05:03:39;;;;;;;65.00;49.50;;;13.70;72.10;;;;;;4909606;28;92189;-49
2022/12/30 05:06:05;;;;;;;63.38;49.00;;;13.70;72.10;;;;;;4903989;28;90595;-50
2022/12/30 05:08:30;;;;;;;63.53;49.20;;;13.70;72.00;;;;;;4904712;28;90031;-49
2022/12/30 05:10:56;;;;;;;64.38;49.15;;;13.70;72.00;;;;;;4907871;28;89964;-49
2022/12/30 05:13:21;;;;;;;66.20;49.83;;;13.70;72.10;;;;;;4903543;28;89838;-48
2022/12/30 05:15:47;;;;;;;64.28;49.15;;;13.70;72.10;;;;;;4923759;28;89875;-47
2022/12/30 05:18:13;;;;;;;65.35;49.00;;;13.70;72.10;;;;;;4907977;28;90601;-48
2022/12/30 05:20:39;;;;;;;65.53;49.60;;;13.70;72.10;;;;;;4916556;28;93099;-47
2022/12/30 05:26:13;;;;;;;64.03;49.28;;;13.70;71.90;;;;;;4911075;28;90338;-50
2022/12/30 05:28:34;;;;;;;64.78;49.47;;;13.70;72.00;;;;;;4914590;28;89491;-47
2022/12/30 05:31:00;;;;;;;64.53;49.28;;;13.70;71.90;;;;;;4912546;28;89822;-49
2022/12/30 05:33:25;;;;;;;63.50;49.60;;;13.70;72.00;;;;;;4922731;28;90065;-49
2022/12/30 05:35:51;;;;;;;64.65;49.40;;;13.70;71.80;;;;;;4914990;28;90045;-49
2022/12/30 05:38:16;;;;;;;63.92;48.80;;;13.70;71.90;;;;;;4910595;28;91130;-49
2022/12/30 05:40:42;;;;;;;63.05;49.35;;;13.70;71.80;;;;;;4905672;28;90623;-47
2022/12/30 05:43:07;;;;;;;66.13;49.05;;;13.70;71.80;;;;;;4911633;28;90996;-50
2022/12/30 05:45:33;;;;;;;63.75;48.95;;;13.70;71.80;;;;;;4909335;28;90390;-50
2022/12/30 05:47:59;;;;;;;66.43;49.42;;;13.70;71.80;;;;;;4907466;28;90592;-50
2022/12/30 05:50:24;;;;;;;63.92;49.33;;;13.70;71.80;;;;;;4911811;28;89534;-50
2022/12/30 05:52:50;;;;;;;63.53;49.33;;;13.70;71.80;;;;;;4917419;28;89792;-52
2022/12/30 05:55:16;;;;;;;64.28;49.25;;;13.70;71.80;;;;;;4914229;28;90795;-48
2022/12/30 05:57:41;;;;;;;63.50;49.08;;;13.60;72.40;;;;;;4913051;28;90149;-50
2022/12/30 06:00:08;;;;;;;64.28;48.92;;;13.70;71.50;;;;;;4917777;28;89858;-49
2022/12/30 06:02:34;;;;;;;65.80;49.70;;;13.70;71.70;;;;;;4901162;28;93839;-49
2022/12/30 06:04:59;;;;;;;64.88;49.47;;;13.70;71.70;;;;;;4908170;28;89885;-48
2022/12/30 06:07:25;;;;;;;64.47;49.45;;;13.70;71.70;;;;;;4909949;28;94283;-47
2022/12/30 06:09:50;;;;;;;63.30;49.10;;;13.70;71.70;;;;;;4917047;28;90088;-47
2022/12/30 06:12:16;;;;;;;63.38;48.95;;;13.70;71.70;;;;;;4922360;28;90719;-49
2022/12/30 06:14:42;;;;;;;64.07;49.45;;;13.70;71.80;;;;;;4911417;28;92437;-49
2022/12/30 06:17:07;;;;;;;63.67;49.47;;;13.70;71.70;;;;;;4904081;28;89868;-48
2022/12/30 06:19:33;;;;;;;64.88;49.50;;;13.70;71.50;;;;;;4918192;28;89876;-48
2022/12/30 06:21:58;;;;;;;63.22;48.95;;;13.70;71.80;;;;;;4901971;28;91400;-46
2022/12/30 06:24:24;;;;;;;64.60;49.42;;;13.70;71.80;;;;;;4904853;28;89894;-47
2022/12/30 06:26:50;;;;;;;64.22;49.30;;;13.70;71.80;;;;;;4912127;28;90051;-49
2022/12/30 06:29:15;;;;;;;63.85;49.45;;;13.60;71.60;;;;;;4913156;28;91369;-48
2022/12/30 06:31:41;;;;;;;62.88;49.55;;;13.70;71.60;;;;;;4904112;28;91694;-47
2022/12/30 06:34:07;;;;;;;64.03;49.72;;;13.70;71.50;;;;;;4895906;28;95419;-51
2022/12/30 06:36:32;;;;;;;67.10;49.20;;;13.70;71.70;;;;;;4907727;28;89845;-51
2022/12/30 06:38:58;;;;;;;64.72;49.38;;;13.70;71.60;;;;;;4906687;28;90269;-49
2022/12/30 06:41:24;;;;;;;63.03;49.35;;;13.70;71.70;;;;;;4901524;28;92157;-50
2022/12/30 06:43:49;;;;;;;64.45;49.10;;;13.70;71.60;;;;;;4902548;28;92519;-46
2022/12/30 06:46:15;;;;;;;67.03;49.38;;;13.70;71.70;;;;;;4910906;28;89446;-48
2022/12/30 06:48:41;;;;;;;65.18;49.20;;;13.70;71.70;;;;;;4900534;28;90504;-48
2022/12/30 06:51:06;;;;;;;62.75;49.50;;;13.70;71.80;;;;;;4901971;28;90940;-50
2022/12/30 06:53:32;;;;;;;65.57;49.45;;;13.70;71.70;;;;;;4904785;28;91397;-51
2022/12/30 06:55:58;;;;;;;67.80;48.88;;;13.70;71.70;;;;;;4904880;28;91037;-50
2022/12/30 06:58:24;;;;;;;64.35;48.75;;;13.70;71.70;;;;;;4906061;28;89737;-52
2022/12/30 07:00:49;;;;;;;67.93;49.13;;;13.70;71.70;;;;;;4904295;28;92383;-47
2022/12/30 07:03:15;;;;;;;63.65;48.92;;;13.70;71.60;;;;;;4901236;28;90310;-49
2022/12/30 07:05:41;;;;;;;63.83;49.80;;;13.70;71.60;;;;;;4896893;28;90197;-49
2022/12/30 07:08:06;;;;;;;61.88;48.80;;;13.70;71.60;;;;;;4916700;28;90162;-48
2022/12/30 07:10:32;;;;;;;64.80;48.60;;;13.70;71.60;;;;;;4909907;28;91517;-50
2022/12/30 07:12:58;;;;;;;65.28;49.70;;;13.70;71.70;;;;;;4904055;28;92123;-50
2022/12/30 07:15:23;;;;;;;66.32;49.45;;;13.70;71.70;;;;;;4895159;28;90988;-49
2022/12/30 07:17:49;;;;;;;66.47;49.72;;;13.70;71.80;;;;;;4896795;28;91177;-47
2022/12/30 07:20:18;;;;;;;71.65;51.38;;;13.70;71.80;;;;;;4906556;28;91239;-49
2022/12/30 07:22:43;;;;;;;68.47;49.97;;;13.70;72.20;;;;;;4901830;28;90862;-50
2022/12/30 07:25:09;;;;;;;68.55;50.20;;;13.70;72.50;;;;;;4907380;28;91079;-53
2022/12/30 07:27:35;;;;;;;68.32;50.15;;;13.80;72.70;;;;;;4903812;28;90119;-49
2022/12/30 07:30:00;;;;;;;67.10;50.72;;;13.70;72.60;;;;;;4905724;28;91293;-47
2022/12/30 07:32:26;;;;;;;70.80;50.10;;;13.60;72.60;;;;;;4902924;28;90293;-51
2022/12/30 07:34:52;;;;;;;69.28;50.15;;;13.70;72.50;;;;;;4899985;28;89843;-49
2022/12/30 07:37:17;;;;;;;67.82;50.03;;;13.60;72.40;;;;;;4911137;28;93899;-49
2022/12/30 07:39:43;;;;;;;67.28;50.10;;;13.60;72.40;;;;;;4909872;28;92350;-51
2022/12/30 07:42:09;;;;;;;67.18;49.63;;;13.60;72.50;;;;;;4908910;28;89978;-52
2022/12/30 07:44:37;;;;;;;65.50;50.45;;;13.60;72.30;;;;;;4909040;28;93659;-50
2022/12/30 07:47:03;;;;;;;68.68;50.28;;;13.60;72.20;;;;;;4910871;28;93033;-49
2022/12/30 07:49:29;;;;;;;68.07;50.03;;;13.60;72.20;;;;;;4911670;28;90397;-47
2022/12/30 07:51:55;;;;;;;65.68;49.72;;;13.60;72.20;;;;;;4909800;28;90642;-50
2022/12/30 07:54:20;;;;;;;66.70;50.22;;;13.60;72.10;;;;;;4906988;28;89740;-51
2022/12/30 07:56:46;;;;;;;65.38;49.80;;;13.60;72.10;;;;;;4914114;28;91013;-48
2022/12/30 07:59:12;;;;;;;66.25;49.65;;;13.60;72.10;;;;;;4911874;28;91170;-48
2022/12/30 08:01:38;;;;;;;64.63;49.38;;;13.60;72.10;;;;;;4910073;28;92692;-49
2022/12/30 08:04:05;;;;;;;70.53;49.40;;;13.60;72.00;;;;;;4915338;28;90926;-51
2022/12/30 08:06:30;;;;;;;66.68;49.67;;;13.60;71.90;;;;;;4909007;28;90231;-49
2022/12/30 08:08:56;;;;;;;67.95;49.78;;;13.60;72.00;;;;;;4901493;28;90764;-49
2022/12/30 08:11:21;;;;;;;64.03;49.35;;;13.60;71.90;;;;;;4908668;28;90740;-49
2022/12/30 08:13:47;;;;;;;66.40;49.85;;;13.60;71.80;;;;;;4917878;28;90017;-48
2022/12/30 08:16:15;;;;;;;64.43;49.35;;;13.50;71.70;;;;;;4913035;28;89982;-50
2022/12/30 08:18:42;;;;;;;67.70;49.95;;;13.60;71.80;;;;;;4908368;28;95258;-48
2022/12/30 08:21:10;;;;;;;65.63;49.47;;;13.60;71.70;;;;;;4925948;28;90739;-49
2022/12/30 08:23:36;;;;;;;67.38;49.58;;;13.60;71.80;;;;;;4916240;28;89743;-50
2022/12/30 08:26:14;;;;;;;66.30;49.58;;;13.60;71.70;;;;;;4909283;28;88795;-48
2022/12/30 08:28:40;;;;;;;67.38;49.90;;;13.50;71.60;;;;;;4904829;28;90711;-47
2022/12/30 08:31:11;;;;;;;65.82;49.38;;;13.60;71.50;;;;;;4902712;28;90350;-48
2022/12/30 08:33:37;;;;;;;;;;;13.60;71.70;;;;;;4911883;28;90879;-49
2022/12/30 08:36:05;;;;;;;63.30;49.08;;;13.60;71.60;;;;;;4914174;28;89955;-48
2022/12/30 08:38:30;;;;;;;63.95;49.20;;;13.60;71.60;;;;;;4906248;28;93185;-48
2022/12/30 08:41:07;;;;;;;65.00;49.17;;;13.60;71.50;;;;;;4912979;28;89947;-52
2022/12/30 08:43:33;;;;;;;69.15;49.80;;;13.50;71.50;;;;;;4907590;28;91041;-51
2022/12/30 08:46:02;;;;;;;63.92;49.13;;;13.60;71.40;;;;;;4909148;28;91458;-48
2022/12/30 08:48:28;;;;;;;65.88;49.85;;;13.60;71.50;;;;;;4906728;28;90059;-52
2022/12/30 08:50:55;;;;;;;65.72;49.42;;;13.60;71.30;;;;;;4911814;28;90832;-50
2022/12/30 08:53:21;;;;;;;64.43;49.28;;;13.60;71.40;;;;;;4913169;28;89961;-50
2022/12/30 08:55:46;;;;;;;65.47;49.63;;;13.60;71.40;;;;;;4910049;28;91519;-51
2022/12/30 08:58:12;;;;;;;63.88;49.55;;;13.50;71.40;;;;;;4911090;28;91192;-49
2022/12/30 09:00:38;;;;;;;63.70;49.35;;;13.60;71.50;;;;;;4923987;28;90793;-47
2022/12/30 09:03:04;;;;;;;64.10;48.88;;;13.50;71.30;;;;;;4910810;28;90799;-48
2022/12/30 09:05:32;;;;;;;63.33;48.88;;;13.60;71.40;;;;;;4915851;28;94075;-48
2022/12/30 09:07:58;;;;;;;67.18;49.63;;;13.60;71.40;;;;;;4909518;28;91264;-49
2022/12/30 09:10:24;;;;;;;65.10;49.33;;;13.60;71.30;;;;;;4917730;28;89942;-51
2022/12/30 09:12:50;;;;;;;63.15;48.92;;;13.50;71.20;;;;;;4907520;28;90073;-51
2022/12/30 09:15:15;;;;;;;63.30;49.00;;;13.60;71.30;;;;;;4906586;28;89162;-50
2022/12/30 09:17:41;;;;;;;64.90;49.08;;;13.60;71.20;;;;;;4916174;28;91522;-50
2022/12/30 09:20:07;;;;;;;63.60;48.83;;;13.60;71.20;;;;;;4916020;28;95527;-54
2022/12/30 09:22:33;;;;;;;63.15;49.08;;;13.60;71.20;;;;;;4905432;28;90748;-51
2022/12/30 09:24:58;;;;;;;64.47;49.30;;;13.60;71.10;;;;;;4904235;28;92319;-53
2022/12/30 09:27:24;;;;;;;66.43;49.08;;;13.60;71.20;;;;;;4909888;28;91808;-50
2022/12/30 09:29:49;;;;;;;64.15;49.30;;;13.60;71.10;;;;;;4905981;28;90511;-51
2022/12/30 09:32:15;;;;;;;66.57;49.13;;;13.60;71.10;;;;;;4910123;28;92135;-51
2022/12/30 09:34:41;;;;;;;64.50;49.25;;;13.60;71.00;;;;;;4910810;28;91517;-50
2022/12/30 09:37:08;;;;;;;64.20;48.90;;;13.60;71.80;;;;;;4917634;28;91193;-51
2022/12/30 09:39:34;;;;;;;63.92;48.50;;;13.60;71.00;;;;;;4908428;28;92315;-52
2022/12/30 09:45:12;;;;;;;64.80;48.90;;;13.60;71.00;;;;;;4911707;28;90745;-47
2022/12/30 09:47:48;;;;;;;63.50;49.65;;;13.60;71.00;;;;;;4906216;28;92036;-48
2022/12/30 09:50:25;;;;;;;63.30;48.90;;;13.60;71.00;;;;;;4913008;28;92439;-50
2022/12/30 09:53:03;;;;;;;62.08;48.60;;;13.60;71.00;;;;;;4919418;28;91320;-48
2022/12/30 09:55:38;;;;;;;63.83;48.67;;;13.60;70.90;;;;;;4917952;28;92140;-52
2022/12/30 09:58:11;;;;;;;62.97;48.80;;;13.60;70.90;;;;;;4912430;28;90847;-49
2022/12/30 10:00:37;;;;;;;64.15;48.70;;;13.50;70.80;;;;;;4904593;28;93899;-51
2022/12/30 10:03:25;;;;;;;64.32;49.03;;;13.60;70.80;;;;;;4906354;28;90401;-50
2022/12/30 10:06:12;;;;;;;63.75;48.90;;;13.60;70.90;;;;;;4902279;28;93423;-54
2022/12/30 10:08:40;;;;;;;63.80;49.35;;;13.60;70.90;;;;;;4910082;28;90431;-50
2022/12/30 10:11:29;;;;;;;62.75;48.67;;;13.50;70.80;;;;;;4912500;28;89856;-49
2022/12/30 10:14:15;;;;;;;62.42;48.88;;;13.60;70.90;;;;;;4913766;28;90964;-53
2022/12/30 10:16:46;;;;;;;64.22;48.72;;;13.60;70.90;;;;;;4911148;28;89870;-49
2022/12/30 10:19:23;;;;;;;63.38;48.63;;;13.60;70.70;;;;;;4907500;28;91134;-49
2022/12/30 10:22:18;;;;;;;64.32;48.78;;;13.60;70.80;;;;;;4904849;28;91044;-50
2022/12/30 10:25:01;;;;;;;63.42;49.05;;;13.60;70.70;;;;;;4909422;28;90011;-50
2022/12/30 10:27:38;;;;;;;64.50;48.80;;;13.60;70.70;;;;;;4906224;28;90640;-52
2022/12/30 10:30:12;;;;;;;62.42;48.75;;;13.60;70.80;;;;;;4912036;28;90678;-48
2022/12/30 10:32:44;;;;;;;63.63;49.75;;;13.60;70.80;;;;;;4907597;28;89744;-50
2022/12/30 10:35:24;;;;;;;63.28;48.80;;;13.60;70.80;;;;;;4916972;28;94170;-49
2022/12/30 10:38:04;;;;;;;62.80;49.00;;;13.50;70.80;;;;;;4911750;28;92016;-51
2022/12/30 10:40:44;;;;;;;62.97;48.67;;;13.60;70.90;;;;;;4901006;28;92302;-48
2022/12/30 10:43:47;;;;;;;62.35;48.65;;;13.60;70.70;;;;;;4913931;28;90305;-52
2022/12/30 10:46:19;;;;;;;63.08;48.90;;;13.60;70.80;;;;;;4901838;28;91357;-51
2022/12/30 10:49:15;;;;;;;63.78;48.63;;;13.60;70.70;;;;;;4905171;28;89990;-49
2022/12/30 10:51:41;;;;;;;62.58;48.70;;;13.60;70.70;;;;;;4916702;28;90241;-50
2022/12/30 10:54:09;;;;;;;63.25;48.90;;;13.60;70.70;;;;;;4910527;28;91055;-49
2022/12/30 10:56:36;;;;;;;63.65;48.53;;;13.50;70.70;;;;;;4908783;28;90433;-50
2022/12/30 10:59:13;;;;;;;63.13;48.90;;;13.60;70.80;;;;;;4916984;28;89276;-51
2022/12/30 11:01:40;;;;;;;62.78;48.65;;;13.50;70.80;;;;;;4906433;28;91098;-51
2022/12/30 11:04:06;;;;;;;63.22;48.75;;;13.60;70.90;;;;;;4908167;28;89895;-50
2022/12/30 11:06:37;;;;;;;63.53;49.00;;;13.50;70.70;;;;;;4907527;28;91785;-48
2022/12/30 11:09:11;;;;;;;62.92;48.55;;;13.50;70.80;;;;;;4908595;28;90609;-48
2022/12/30 11:14:43;;;;;;;61.83;48.40;;;13.50;70.80;;;;;;4916890;28;92386;-52
2022/12/30 11:17:26;;;;;;;62.30;48.80;;;13.50;70.80;;;;;;4912201;28;89772;-51
2022/12/30 11:19:59;;;;;;;62.65;48.85;;;13.50;70.80;;;;;;4902540;28;89724;-52
2022/12/30 11:22:26;;;;;;;63.15;48.40;;;13.50;70.80;;;;;;4909898;28;90925;-52
2022/12/30 11:24:57;;;;;;;63.78;49.28;;;13.50;70.70;;;;;;4912966;28;90017;-49
2022/12/30 11:27:35;;;;;;;62.60;48.53;;;13.50;70.70;;;;;;4902219;28;90678;-52
2022/12/30 11:30:01;;;;;;;62.67;48.22;;;13.60;70.60;;;;;;4912173;28;89654;-52
2022/12/30 11:32:26;;;;;;;62.45;48.78;;;13.50;70.70;;;;;;4908274;28;90355;-48
2022/12/30 11:34:52;;;;;;;63.92;49.17;;;13.50;70.60;;;;;;4906898;28;91269;-49
2022/12/30 11:37:25;;;;;;;62.88;48.72;;;13.50;70.60;;;;;;4914932;28;90428;-49
2022/12/30 11:39:51;;;;;;;63.20;48.50;;;13.50;70.60;;;;;;4905838;28;92603;-49
2022/12/30 11:42:31;;;;;;;62.20;48.75;;;13.50;70.50;;;;;;4907382;28;90316;-49
2022/12/30 11:45:32;;;;;;;63.60;48.45;;;13.50;70.50;;;;;;4900439;28;90966;-50
2022/12/30 11:47:59;;;;;;;61.93;48.67;;;13.50;70.60;;;;;;4891699;28;90841;-52
2022/12/30 11:50:25;;;;;;;61.42;48.60;;;13.50;70.50;;;;;;4909590;28;89509;-48
2022/12/30 11:53:01;;;;;;;62.30;48.65;;;13.50;70.50;;;;;;4912431;28;90688;-49
2022/12/30 11:55:27;;;;;;;62.13;48.40;;;13.50;70.60;;;;;;4916026;28;90134;-50
2022/12/30 11:57:57;;;;;;;62.25;48.67;;;13.50;70.60;;;;;;4902010;28;92837;-50
2022/12/30 12:00:40;;;;;;;62.05;48.22;;;13.60;70.50;;;;;;4905908;28;94368;-52
2022/12/30 12:03:13;;;;;;;62.85;49.15;;;13.60;70.40;;;;;;4908508;28;90083;-49
2022/12/30 12:05:42;;;;;;;63.53;48.40;;;13.60;70.40;;;;;;4913846;28;92530;-51
2022/12/30 12:08:31;;;;;;;62.17;48.67;;;13.60;70.40;;;;;;4920182;28;89924;-48
2022/12/30 12:11:01;;;;;;;62.00;48.38;;;13.60;70.40;;;;;;4914699;28;90104;-48
2022/12/30 12:13:55;;;;;;;62.17;48.78;;;13.60;70.30;;;;;;4909237;28;89879;-49
2022/12/30 12:16:43;;;;;;;62.08;48.55;;;13.60;70.30;;;;;;4906758;28;90042;-52
2022/12/30 12:19:26;;;;;;;62.47;48.75;;;13.60;70.20;;;;;;4906976;28;90433;-50
2022/12/30 12:21:55;;;;;;;62.25;48.35;;;13.60;70.20;;;;;;4905488;28;90362;-49
2022/12/30 12:24:34;;;;;;;61.38;48.35;;;13.60;70.20;;;;;;4901688;28;91083;-50
2022/12/30 12:27:09;;;;;;;62.40;48.85;;;13.60;70.20;;;;;;4899968;28;91474;-53
2022/12/30 12:29:35;;;;;;;62.00;48.72;;;13.60;70.20;;;;;;4905188;28;89796;-49
2022/12/30 12:32:05;;;;;;;62.35;48.35;;;13.60;70.10;;;;;;4909124;28;92624;-49
2022/12/30 12:34:53;;;;;;;62.42;48.40;;;13.60;70.10;;;;;;4908379;28;90703;-49
2022/12/30 12:37:22;;;;;;;62.22;48.70;;;13.60;70.20;;;;;;4905456;28;92004;-53
2022/12/30 12:40:11;;;;;;;62.17;48.63;;;13.70;70.20;;;;;;4910092;28;92281;-52
2022/12/30 12:43:01;;;;;;;62.80;48.80;;;13.60;70.10;;;;;;4901110;28;89026;-50
2022/12/30 12:45:40;;;;;;;61.60;48.35;;;13.60;70.10;;;;;;4920222;28;89879;-51
2022/12/30 12:48:31;;;;;;;63.15;48.55;;;13.60;70.10;;;;;;4904849;28;90332;-49
2022/12/30 12:51:17;;;;;;;61.65;48.20;;;13.60;70.00;;;;;;4904666;28;91318;-54
2022/12/30 12:53:55;;;;;;;62.17;48.60;;;13.60;70.00;;;;;;4904781;28;93232;-51
2022/12/30 12:56:54;;;;;;;62.45;48.42;;;13.60;70.10;;;;;;4905903;28;90027;-48
2022/12/30 12:59:57;;;;;;;62.22;48.53;;;13.60;70.00;;;;;;4900292;28;90707;-49
2022/12/30 13:02:56;;;;;;;63.20;48.65;;;13.60;70.10;;;;;;4910888;28;89861;-52
2022/12/30 13:05:33;;;;;;;61.95;48.55;;;13.60;70.00;;;;;;4912967;28;89622;-48
2022/12/30 13:08:04;;;;;;;61.40;48.22;;;13.60;70.00;;;;;;4904129;28;90511;-53
2022/12/30 13:10:34;;;;;;;;;;;13.60;69.90;;;;;;4910283;28;90080;-51
2022/12/30 13:13:11;;;;;;;60.33;47.80;;;13.70;70.00;;;;;;4908748;28;91263;-51
2022/12/30 13:15:44;;;;;;;61.83;48.33;;;13.70;70.00;;;;;;4910518;28;89903;-52
2022/12/30 13:18:19;;;;;;;61.67;48.42;;;13.60;70.80;;;;;;4902698;28;92853;-50
2022/12/30 13:20:49;;;;;;;61.42;48.30;;;13.60;70.00;;;;;;4905010;28;90805;-51
2022/12/30 13:23:19;;;;;;;61.35;47.85;;;13.70;70.00;;;;;;4907928;28;90319;-49
2022/12/30 13:25:51;;;;;;;62.28;48.92;;;13.70;70.00;;;;;;4911247;28;92180;-51
2022/12/30 13:28:23;;;;;;;62.47;48.42;;;13.70;70.00;;;;;;4909621;28;91691;-49
2022/12/30 13:30:54;;;;;;;;;;;13.70;69.90;;;;;;4905157;28;91383;-50
2022/12/30 13:33:59;;;;;;;61.63;48.70;;;13.70;69.90;;;;;;4909935;28;90085;-51
2022/12/30 13:37:05;;;;;;;62.15;48.45;;;13.70;69.90;;;;;;4912521;28;89995;-51
2022/12/30 13:39:35;;;;;;;61.58;48.42;;;13.70;69.80;;;;;;4905235;28;90278;-52
2022/12/30 13:42:19;;;;;;;62.17;48.17;;;13.70;69.80;;;;;;4921438;28;90481;-54
2022/12/30 13:44:47;;;;;;;61.83;48.17;;;13.70;69.80;;;;;;4910438;28;91135;-49